This is the latest recevied weather packets stored in our database for station/object ANJALA. If no packets are shown the sender has not sent any weather packets the latest 10 day(s).
| Time | Temp. | Humidity | Pressure | Rain* | Wind** | Luminosity | Snow |
|---|---|---|---|---|---|---|---|
| 1777098386 | 2.78° C | 95% | - | 1.78 mm | - | - | - |
| 1777097185 | 2.78° C | 94% | - | 1.78 mm | - | - | - |
| 1777095986 | 2.78° C | 93% | - | 0.51 mm | - | - | - |
| 1777094785 | 3.33° C | 92% | - | 0.51 mm | - | - | - |
| 1777093585 | 3.33° C | 87% | - | 0.51 mm | - | - | - |
| 1777092385 | 3.89° C | 81% | - | 0 mm | - | - | - |
| 1777091185 | 3.89° C | 71% | - | 0 mm | - | - | - |
| 1777089985 | 3.89° C | 64% | - | 0 mm | - | - | - |
| 1777088785 | 3.89° C | 63% | - | 0 mm | - | - | - |
| 1777087585 | 3.33° C | 63% | - | 0 mm | - | - | - |
| 1777086385 | 3.33° C | 61% | - | 0 mm | - | - | - |
| 1777085184 | 2.78° C | 61% | - | 0 mm | - | - | - |
| 1777083984 | 2.78° C | 67% | - | 0 mm | - | - | - |
| 1777082785 | 2.78° C | 65% | - | 0 mm | - | - | - |
| 1777081584 | 2.78° C | 64% | - | 0 mm | - | - | - |
| 1777080384 | 2.78° C | 65% | - | 0 mm | - | - | - |
| 1777079184 | 2.22° C | 64% | - | 0 mm | - | - | - |
| 1777077984 | 2.22° C | 64% | - | 0 mm | - | - | - |
| 1777076784 | 2.78° C | 57% | - | 0 mm | - | - | - |
| 1777075584 | 2.22° C | 57% | - | 0 mm | - | - | - |
| 1777074384 | 2.22° C | 58% | - | 0 mm | - | - | - |
| 1777073184 | 2.78° C | 55% | - | 0 mm | - | - | - |
| 1777071984 | 2.22° C | 58% | - | 0 mm | - | - | - |
| 1777070784 | 1.11° C | 61% | - | 0 mm | - | - | - |
| 1777069584 | 2.22° C | 55% | - | 0 mm | - | - | - |
* Rain latest hour (hover to see other rain measurements)
** Current wind speed in m/s (hover to see current wind gust speed)